Allegany, Oregon
Current Conditions -  °F | °C
As of 1:55 AM on Tuesday 21 Oct 2014 (Local Time) from KOTH Reporting Station
Overcast Overcast  
Wind Chill: 54°   Ceiling: 3100
Heat Index: 54°   Visibility: 10mi
Dew Point: 54°   Wind: 7mph
Humidity: 100%   Direction: 180°S
Pressure: 29.96"   Gusts: NA
Location:  43.43°N, 124.03°W
Report Text: KOTH 210855Z 18006KT 10SM BKN031 OVC036 12/12 A2996 RMK AO1 P0005 60005 52010
Loading
Personal Weather Stations






























Interactive Weather Map
Tropical Storm Tracking
New forecast layout! Learn more

10-Day Weather Forecast

Advertisements
Track Severe Weather on mobile